AirNav   Air Wisconsin Up To $57,000 Bonus
 
 368 users online  

LA43 Bristow U.S. LLC Heliport 2
New Iberia, Louisiana, USA

GOING TO NEW IBERIA?


FAA INFORMATION EFFECTIVE 08 SEPTEMBER 2022

Location

FAA Identifier: LA43
Lat/Long: 30-02-42.7300N 091-52-53.4260W
30-02.712167N 091-52.890433W
30.0452028,-91.8815072
(estimated)
Elevation: 23 ft. / 7 m (estimated)
Variation: 04E (1985)
From city: 3 miles NW of NEW IBERIA, LA
Time zone: UTC -5 (UTC -6 during Standard Time)
Zip code: 70560

Heliport Operations

Heliport use: Private use. Permission required prior to landing
Activation date: 01/1977
Control tower: no
ARTCC: HOUSTON CENTER
FSS: DE RIDDER FLIGHT SERVICE STATION
Attendance: CONTINUOUS
Wind indicator: WIND INDICATOR LCTD ON ARPT ADJ TO HELIPORT.
Segmented circle: no

Heliport Communications

WX ASOS at ARA (0.5 nm S): 133.325 (337-365-0128)
WX ASOS at LFT (11 nm NW): 134.05 ((337)262-2757)
WX AWOS-3 at IYA (11 nm W): 118.875 (337-892-0526)

Nearby radio navigation aids

VOR radial/distance  VOR name  Freq  Var
LFTr144/10.6LAFAYETTE VORTAC109.8003E
LLAr044/34.4WHITE LAKE VOR/DME114.9504E

 
NDB name  Hdg/Dist  Freq  Var  ID
ABBEVILLE092/12.623002EBNZ -... -. --..
LAFFS172/14.737503ELF .-.. ..-.

Heliport Services

Parking: hangars and tiedowns
Airframe service: MAJOR
Powerplant service: MAJOR

Runway Information

Helipad H1

Dimensions: 40 x 40 ft. / 12 x 12 m
Surface: turf
Latitude: 30-02.712167N
Longitude: 091-52.890433W
Elevation: 23.0 ft.
Traffic pattern: leftleft

Heliport Ownership and Management from official FAA records

Ownership: Privately-owned
Owner: BRISTOW U.S. L.L.C.
4605 INDUSTRIAL DRIVE
NEW IBERIA, LA 70560
Phone 337-365-6771
Manager: ROBERT OLD
4605 INDUSTRIAL DR.
NEW IBERIA, LA 70560
Phone 337-365-6771

Heliport Operational Statistics

Aircraft based on the field: 10
Helicopters: 10
    

Additional Remarks

FOR CD CTC LAFAYETTE APCH AT 337-262-2729, WHEN APCH CLSD CTC HOUSTON ARTCC AT 281-230-5622.

Instrument Procedures

There are no published instrument procedures at LA43.

Some nearby airports with instrument procedures:

KARA - Acadiana Regional Airport (0 nm S)
KLFT - Lafayette Regional Airport/Paul Fournet Field (11 nm NW)
KIYA - Abbeville Chris Crusta Memorial Airport (11 nm W)
KOPL - St Landry Parish Airport-Ahart Field (33 nm N)
KPTN - Harry P Williams Memorial Airport (35 nm SE)
 
Loc | Ops | Rwys | IFR | FBO | Links
Com | Nav | Svcs | Stats | Notes
Area around LA43 (Bristow U.S. LLC Heliport 2)
 
Road maps at: MapQuest Bing Google
 
Aerial photo
No photo
 
Sectional chart

 
Airport distance calculator
Flying to Bristow U.S. LLC Heliport 2? Find the distance to fly.

From to LA43

Sunrise and sunset
Times for 02-Oct-2022
 Local
(UTC-5)
 Zulu
(UTC)
Morning civil twilight06:3911:39
Sunrise07:0212:02
Sunset18:5123:51
Evening civil twilight19:1500:15

Current date and time
Zulu (UTC)  02-Oct-2022 09:19:37
Local (UTC-5)  02-Oct-2022 04:19:37
 
METAR
KARA 020853Z AUTO 35005KT 10SM CLR 14/10 A3004 RMK AO2 SLP172 T01390100 50001 $
KLFT 
11nm NW 
020853Z AUTO 00000KT 10SM CLR 13/11 A3005 RMK AO2 SLP174 T01280111 50002
K0R3 
11nm W 
118.875
No observation available
KIYA 
11nm W 
020855Z AUTO 00000KT 10SM CLR 11/08 A3005 RMK AO2 T01090080
TAF
KARA 020520Z 0206/0306 VRB03KT P6SM SKC FM021500 01007KT P6SM SKC FM030100 VRB03KT P6SM SKC
KLFT 
11nm NW 
020520Z 0206/0306 VRB04KT P6SM SKC FM021500 01007KT P6SM SKC FM030100 VRB03KT P6SM SKC
NOTAMs
Click for the latest NOTAMs
NOTAMs are issued by the DoD/FAA and will open in a separate window not controlled by AirNav.

 

 
 

Would you like to see your business listed on this page?

 If your business provides an interesting product or service to pilots, flight crews, aircraft, or users of the Bristow U.S. LLC Heliport 2, you should consider listing it here.  To start the listing process, click on the button below
 
Add a business
 

Other Pages about Bristow U.S. LLC Heliport 2

Update a link
 
Copyright © AirNav, LLC. All rights reserved. Privacy Policy  Contact